Time;durP1;ratioP1;P1;durP2;ratioP2;P2;SDS_P1;SDS_P2;PMS_P1;PMS_P2;Temp;Humidity;BMP_temperature;BMP_pressure;BME280_temperature;BME280_humidity;BME280_pressure;Samples;Min_cycle;Max_cycle;Signal;HPM_P1;HPM_P2
2023/05/23 00:00:50;;;;;;;14.52;11.32;;;;;;;;;;6058076;23;20035;-59
2023/05/23 00:03:24;;;;;;;15.93;12.10;;;;;;;;;;6056911;23;20420;-58
2023/05/23 00:05:52;;;;;;;13.57;10.73;;;;;;;;;;6056929;23;20558;-58
2023/05/23 00:08:26;;;;;;;14.52;10.73;;;;;;;;;;6057453;23;20031;-59
2023/05/23 00:10:53;;;;;;;13.82;11.10;;;;;;;;;;6056132;23;20494;-58
2023/05/23 00:13:21;;;;;;;13.70;11.35;;;;;;;;;;6057612;23;20031;-58
2023/05/23 00:15:56;;;;;;;15.65;13.60;;;;;;;;;;6059562;23;20026;-58
2023/05/23 00:18:23;;;;;;;18.05;12.98;;;;;;;;;;6059578;23;20026;-58
2023/05/23 00:20:58;;;;;;;18.58;12.27;;;;;;;;;;6057989;23;20031;-58
2023/05/23 00:23:25;;;;;;;;;;;;;;;;;;6059422;23;20027;-58
2023/05/23 00:25:52;;;;;;;14.02;10.88;;;;;;;;;;6058682;23;20370;-58
2023/05/23 00:28:26;;;;;;;16.17;12.45;;;;;;;;;;6058143;23;20026;-52
2023/05/23 00:30:54;;;;;;;13.57;11.05;;;;;;;;;;6056763;23;20023;-56
2023/05/23 00:33:31;;;;;;;15.55;11.50;;;;;;;;;;6058175;23;20046;-55
2023/05/23 00:35:59;;;;;;;13.32;11.00;;;;;;;;;;6057908;23;20023;-55
2023/05/23 00:38:27;;;;;;;13.88;9.15;;;;;;;;;;6057841;23;20494;-54
2023/05/23 00:41:01;;;;;;;14.63;10.02;;;;;;;;;;6056567;23;20026;-55
2023/05/23 00:43:28;;;;;;;14.52;9.68;;;;;;;;;;6057668;23;20027;-54
2023/05/23 00:46:02;;;;;;;15.77;9.38;;;;;;;;;;6058481;23;20027;-59
2023/05/23 00:48:37;;;;;;;11.95;9.18;;;;;;;;;;6057685;23;20109;-59
2023/05/23 00:51:11;;;;;;;13.40;8.07;;;;;;;;;;6057652;23;20027;-59
2023/05/23 00:53:45;;;;;;;11.00;8.07;;;;;;;;;;6056844;23;20435;-58
2023/05/23 00:56:12;;;;;;;14.75;8.48;;;;;;;;;;6056824;23;20022;-54
2023/05/23 00:58:40;;;;;;;14.27;7.97;;;;;;;;;;6056664;23;20026;-52
2023/05/23 01:01:15;;;;;;;11.45;8.30;;;;;;;;;;6057696;23;20023;-57
2023/05/23 01:03:48;;;;;;;11.20;6.95;;;;;;;;;;6056418;23;20038;-55
2023/05/23 01:06:22;;;;;;;11.80;6.50;;;;;;;;;;6057529;23;20026;-48
2023/05/23 01:08:50;;;;;;;11.00;6.22;;;;;;;;;;6057075;23;20118;-55
2023/05/23 01:11:27;;;;;;;12.90;6.88;;;;;;;;;;6057352;23;20566;-53
2023/05/23 01:14:05;;;;;;;13.40;7.53;;;;;;;;;;6056672;23;20078;-51
2023/05/23 01:16:47;;;;;;;10.23;6.30;;;;;;;;;;6057830;23;20504;-58
2023/05/23 01:19:25;;;;;;;13.73;7.50;;;;;;;;;;6057183;23;20026;-58
2023/05/23 01:21:53;;;;;;;11.32;5.75;;;;;;;;;;6056477;23;20023;-58
2023/05/23 01:24:27;;;;;;;14.93;6.15;;;;;;;;;;6055331;23;20059;-59
2023/05/23 01:27:05;;;;;;;7.55;4.85;;;;;;;;;;6056583;23;20027;-59
2023/05/23 01:29:43;;;;;;;10.38;4.65;;;;;;;;;;6055785;23;20087;-58
2023/05/23 01:32:11;;;;;;;10.70;5.10;;;;;;;;;;6055923;23;20058;-54
2023/05/23 01:34:46;;;;;;;12.30;5.00;;;;;;;;;;6057010;23;20069;-58
2023/05/23 01:37:17;;;;;;;14.73;5.85;;;;;;;;;;6056793;23;20087;-58
2023/05/23 01:39:51;;;;;;;10.77;5.07;;;;;;;;;;6057821;23;20431;-58
2023/05/23 01:42:18;;;;;;;10.77;4.90;;;;;;;;;;6056003;23;20027;-58
2023/05/23 01:44:46;;;;;;;7.28;4.60;;;;;;;;;;6058112;23;20738;-58
2023/05/23 01:47:27;;;;;;;11.80;5.00;;;;;;;;;;6055873;23;20467;-58
2023/05/23 01:50:02;;;;;;;13.80;5.13;;;;;;;;;;6058477;23;20106;-55
2023/05/23 01:52:37;;;;;;;24.58;5.22;;;;;;;;;;6058568;23;20030;-52
2023/05/23 01:55:08;;;;;;;8.13;5.03;;;;;;;;;;6057028;23;20038;-55
2023/05/23 01:57:36;;;;;;;6.25;4.18;;;;;;;;;;6057977;23;20099;-49
2023/05/23 02:00:11;;;;;;;9.20;4.93;;;;;;;;;;6058118;23;20027;-55
2023/05/23 02:02:38;;;;;;;11.05;4.97;;;;;;;;;;6058092;23;20030;-54
2023/05/23 02:05:12;;;;;;;8.57;4.45;;;;;;;;;;6057992;23;20383;-64
2023/05/23 02:07:40;;;;;;;8.93;5.25;;;;;;;;;;6059223;23;20537;-64
2023/05/23 02:10:08;;;;;;;7.78;4.90;;;;;;;;;;6058843;23;20086;-65
2023/05/23 02:12:41;;;;;;;8.15;5.30;;;;;;;;;;6058255;23;20111;-64
2023/05/23 02:15:08;;;;;;;8.88;4.80;;;;;;;;;;6058964;23;20051;-64
2023/05/23 02:17:37;;;;;;;7.57;4.38;;;;;;;;;;6058616;23;20562;-62
2023/05/23 02:20:14;;;;;;;;;;;;;;;;;;6055470;23;20106;-57
2023/05/23 02:22:41;;;;;;;9.95;5.35;;;;;;;;;;6056239;23;19921;-57
2023/05/23 02:25:15;;;;;;;10.82;4.65;;;;;;;;;;6059669;23;20087;-58
2023/05/23 02:27:42;;;;;;;12.77;5.15;;;;;;;;;;6058851;23;20446;-58
2023/05/23 02:30:10;;;;;;;10.55;4.97;;;;;;;;;;6058579;23;20031;-57
2023/05/23 02:32:45;;;;;;;7.50;4.60;;;;;;;;;;6059529;23;20026;-48
2023/05/23 02:35:12;;;;;;;8.80;5.03;;;;;;;;;;6059006;23;20058;-52
2023/05/23 02:37:39;;;;;;;7.88;5.00;;;;;;;;;;6057944;23;20430;-49
2023/05/23 02:40:13;;;;;;;12.77;5.35;;;;;;;;;;6060175;23;20424;-52
2023/05/23 02:42:40;;;;;;;7.30;5.05;;;;;;;;;;6056542;23;20055;-48
2023/05/23 02:45:14;;;;;;;9.55;5.20;;;;;;;;;;6058585;23;20063;-55
2023/05/23 02:47:48;;;;;;;11.75;5.55;;;;;;;;;;6057971;23;20027;-54
2023/05/23 02:50:29;;;;;;;10.25;5.38;;;;;;;;;;6058943;23;20424;-53
2023/05/23 02:53:03;;;;;;;7.25;5.00;;;;;;;;;;6057732;23;20030;-56
2023/05/23 02:55:30;;;;;;;11.65;5.28;;;;;;;;;;6057743;23;20060;-53
2023/05/23 02:58:05;;;;;;;12.15;4.90;;;;;;;;;;6058252;23;20462;-58
2023/05/23 03:00:33;;;;;;;8.48;5.53;;;;;;;;;;6058182;23;20023;-52
2023/05/23 03:03:00;;;;;;;11.45;5.35;;;;;;;;;;6055299;23;20054;-55
2023/05/23 03:05:35;;;;;;;14.52;5.57;;;;;;;;;;6055652;23;20457;-56
2023/05/23 03:08:02;;;;;;;9.98;5.28;;;;;;;;;;6056041;23;20033;-52
2023/05/23 03:10:29;;;;;;;10.45;5.65;;;;;;;;;;6058696;23;20709;-50
2023/05/23 03:13:03;;;;;;;14.38;5.90;;;;;;;;;;6058080;23;20026;-52
2023/05/23 03:15:31;;;;;;;;;;;;;;;;;;6059318;23;20880;-55
2023/05/23 03:17:58;;;;;;;9.40;5.18;;;;;;;;;;6058769;23;19928;-62
2023/05/23 03:20:32;;;;;;;7.95;5.10;;;;;;;;;;6056501;23;20034;-58
2023/05/23 03:23:00;;;;;;;13.75;5.55;;;;;;;;;;6057741;23;20023;-58
2023/05/23 03:25:27;;;;;;;10.82;5.25;;;;;;;;;;6058996;23;20027;-58
2023/05/23 03:28:01;;;;;;;10.75;5.32;;;;;;;;;;6059484;23;20030;-58
2023/05/23 03:30:28;;;;;;;8.43;4.95;;;;;;;;;;6058207;23;20090;-58
2023/05/23 03:33:08;;;;;;;8.50;5.13;;;;;;;;;;6056363;23;20027;-55
2023/05/23 03:35:36;;;;;;;12.85;5.22;;;;;;;;;;6056057;23;20023;-55
2023/05/23 03:38:09;;;;;;;8.27;5.30;;;;;;;;;;6058212;23;20026;-54
2023/05/23 03:40:36;;;;;;;9.88;4.90;;;;;;;;;;6058666;23;20033;-53
2023/05/23 03:43:04;;;;;;;16.52;5.50;;;;;;;;;;6058739;23;20023;-55
2023/05/23 03:45:38;;;;;;;12.15;4.97;;;;;;;;;;6059234;23;20411;-56
2023/05/23 03:48:13;;;;;;;8.38;4.80;;;;;;;;;;6070742;23;20086;-65
2023/05/23 03:50:47;;;;;;;9.02;4.85;;;;;;;;;;6086060;23;20030;-65
2023/05/23 03:53:15;;;;;;;8.90;5.00;;;;;;;;;;6084306;23;20030;-65
2023/05/23 03:55:42;;;;;;;8.23;5.15;;;;;;;;;;6084300;23;20669;-65
2023/05/23 03:58:16;;;;;;;11.20;5.47;;;;;;;;;;6087568;23;20026;-64
2023/05/23 04:00:43;;;;;;;10.07;4.78;;;;;;;;;;6084798;23;20022;-65
2023/05/23 04:03:17;;;;;;;10.73;4.82;;;;;;;;;;6087674;23;20026;-52
2023/05/23 04:05:45;;;;;;;;;;;;;;;;;;6088376;23;20022;-56
2023/05/23 04:08:12;;;;;;;12.50;5.28;;;;;;;;;;6084661;23;19929;-54
2023/05/23 04:10:46;;;;;;;7.47;4.80;;;;;;;;;;6084839;23;20486;-56
2023/05/23 04:13:14;;;;;;;9.77;4.50;;;;;;;;;;6086541;23;20515;-53
2023/05/23 04:15:47;;;;;;;7.90;4.47;;;;;;;;;;6084558;23;20113;-55
2023/05/23 04:18:16;;;;;;;8.23;5.25;;;;;;;;;;6087013;23;20057;-55
2023/05/23 04:20:43;;;;;;;8.07;4.30;;;;;;;;;;6085692;23;20019;-56
2023/05/23 04:23:17;;;;;;;10.90;5.28;;;;;;;;;;6083601;23;20033;-52
2023/05/23 04:25:45;;;;;;;9.80;4.80;;;;;;;;;;6085646;23;20030;-50
2023/05/23 04:28:18;;;;;;;7.38;4.88;;;;;;;;;;6085854;23;20030;-52
2023/05/23 04:30:48;;;;;;;10.32;4.80;;;;;;;;;;6084105;23;20022;-58
2023/05/23 04:33:16;;;;;;;8.32;4.43;;;;;;;;;;6084985;23;20089;-57
2023/05/23 04:35:50;;;;;;;8.02;4.88;;;;;;;;;;6084022;23;20030;-57
2023/05/23 04:38:17;;;;;;;;;;;;;;;;;;6082833;23;20033;-58
2023/05/23 04:40:44;;;;;;;9.68;4.50;;;;;;;;;;6082359;23;19921;-64
2023/05/23 04:43:19;;;;;;;9.57;5.40;;;;;;;;;;6086651;23;20063;-53
2023/05/23 04:45:48;;;;;;;9.00;4.63;;;;;;;;;;6085020;23;20487;-58
2023/05/23 04:48:37;;;;;;;12.02;5.13;;;;;;;;;;6070622;23;20062;-58
2023/05/23 04:51:11;;;;;;;9.85;5.03;;;;;;;;;;6057659;23;20035;-58
2023/05/23 04:53:45;;;;;;;8.95;4.97;;;;;;;;;;6056199;23;20050;-58
2023/05/23 04:56:13;;;;;;;7.70;5.20;;;;;;;;;;6055314;23;20034;-57
2023/05/23 04:58:41;;;;;;;5.70;4.20;;;;;;;;;;6057405;23;20026;-53
2023/05/23 05:01:14;;;;;;;8.00;5.10;;;;;;;;;;6051885;23;20586;-53
2023/05/23 05:03:42;;;;;;;11.07;4.85;;;;;;;;;;6055759;23;20038;-52
2023/05/23 05:06:16;;;;;;;11.85;5.03;;;;;;;;;;6058208;23;20090;-55
2023/05/23 05:08:43;;;;;;;;;;;;;;;;;;6056545;23;20129;-65
2023/05/23 05:11:16;;;;;;;9.32;4.90;;;;;;;;;;6058107;23;19921;-57
2023/05/23 05:13:43;;;;;;;7.13;4.85;;;;;;;;;;6056913;23;20514;-65
2023/05/23 05:16:11;;;;;;;11.38;4.72;;;;;;;;;;6056654;23;20023;-65
2023/05/23 05:18:44;;;;;;;7.63;4.90;;;;;;;;;;6057918;23;20062;-65
2023/05/23 05:21:12;;;;;;;9.43;4.80;;;;;;;;;;6058518;23;20093;-65
2023/05/23 05:23:45;;;;;;;10.55;5.32;;;;;;;;;;6057505;23;20452;-65
2023/05/23 05:26:12;;;;;;;9.88;4.78;;;;;;;;;;6060411;23;20087;-65
2023/05/23 05:28:40;;;;;;;10.50;5.18;;;;;;;;;;6060749;23;20478;-54
2023/05/23 05:31:14;;;;;;;6.63;4.70;;;;;;;;;;6059919;23;20026;-53
2023/05/23 05:33:44;;;;;;;8.07;4.72;;;;;;;;;;6058134;23;20047;-52
2023/05/23 05:36:11;;;;;;;8.15;4.85;;;;;;;;;;6058844;23;20079;-51
2023/05/23 05:38:45;;;;;;;12.38;4.18;;;;;;;;;;6059467;23;20058;-51
2023/05/23 05:41:12;;;;;;;7.53;4.00;;;;;;;;;;6058059;23;20063;-61
2023/05/23 05:43:46;;;;;;;13.02;5.05;;;;;;;;;;6059090;23;20363;-60
2023/05/23 05:46:14;;;;;;;9.23;4.35;;;;;;;;;;6057550;23;20027;-60
2023/05/23 05:48:41;;;;;;;8.75;4.55;;;;;;;;;;6077009;23;20386;-60
2023/05/23 05:51:16;;;;;;;6.22;4.35;;;;;;;;;;6089227;23;20078;-60
2023/05/23 05:53:43;;;;;;;7.43;4.50;;;;;;;;;;6087258;23;20036;-59
2023/05/23 05:56:10;;;;;;;10.13;4.38;;;;;;;;;;6088569;23;20030;-52
2023/05/23 05:58:44;;;;;;;8.85;4.50;;;;;;;;;;6089342;23;20078;-50
2023/05/23 06:01:12;;;;;;;9.63;5.15;;;;;;;;;;6087428;23;20383;-50
2023/05/23 06:03:45;;;;;;;7.38;4.43;;;;;;;;;;6086642;23;20029;-51
2023/05/23 06:06:13;;;;;;;;;;;;;;;;;;6088533;23;20403;-64
2023/05/23 06:08:41;;;;;;;7.75;4.13;;;;;;;;;;6088219;23;19917;-48
2023/05/23 06:11:14;;;;;;;10.20;4.55;;;;;;;;;;6087552;23;20440;-61
2023/05/23 06:13:42;;;;;;;10.15;4.45;;;;;;;;;;6088971;23;20033;-61
2023/05/23 06:16:17;;;;;;;10.43;4.38;;;;;;;;;;6087662;23;20486;-60
2023/05/23 06:18:44;;;;;;;6.50;4.20;;;;;;;;;;6087445;23;20053;-61
2023/05/23 06:21:11;;;;;;;5.20;4.22;;;;;;;;;;6087866;23;20094;-61
2023/05/23 06:23:48;;;;;;;6.63;4.13;;;;;;;;;;6087387;23;20026;-61
2023/05/23 06:26:15;;;;;;;11.23;4.35;;;;;;;;;;6086336;23;20510;-52
2023/05/23 06:28:49;;;;;;;8.60;3.95;;;;;;;;;;6088347;23;20027;-50
2023/05/23 06:31:17;;;;;;;8.13;4.07;;;;;;;;;;6087555;23;20034;-56
2023/05/23 06:33:44;;;;;;;5.75;3.70;;;;;;;;;;6086774;23;20019;-55
2023/05/23 06:36:18;;;;;;;8.48;4.35;;;;;;;;;;6086864;23;20085;-60
2023/05/23 06:38:47;;;;;;;8.30;4.07;;;;;;;;;;6087599;23;20086;-60
2023/05/23 06:41:21;;;;;;;11.52;4.40;;;;;;;;;;6087482;23;20026;-60
2023/05/23 06:43:48;;;;;;;7.75;3.97;;;;;;;;;;6086710;23;20034;-60
2023/05/23 06:46:15;;;;;;;9.27;3.85;;;;;;;;;;6087328;23;20027;-60
2023/05/23 06:49:02;;;;;;;7.13;3.72;;;;;;;;;;6069898;23;20026;-60
2023/05/23 06:51:41;;;;;;;11.38;4.28;;;;;;;;;;6059261;23;20082;-60
2023/05/23 06:54:15;;;;;;;8.68;4.05;;;;;;;;;;6058588;23;20033;-52
2023/05/23 06:56:42;;;;;;;6.68;4.20;;;;;;;;;;6059324;23;20082;-50
2023/05/23 06:59:10;;;;;;;8.48;4.70;;;;;;;;;;6058370;23;20035;-53
2023/05/23 07:01:43;;;;;;;6.35;3.97;;;;;;;;;;6058670;23;20230;-51
2023/05/23 07:04:17;;;;;;;6.75;4.18;;;;;;;;;;6057621;23;20029;-53
2023/05/23 07:06:51;;;;;;;15.80;4.55;;;;;;;;;;6058120;23;20518;-54
2023/05/23 07:09:25;;;;;;;7.85;4.18;;;;;;;;;;6058439;23;20098;-57
2023/05/23 07:11:59;;;;;;;6.53;4.20;;;;;;;;;;6057715;23;20491;-57
2023/05/23 07:14:27;;;;;;;8.68;4.85;;;;;;;;;;6057546;23;20034;-54
2023/05/23 07:16:54;;;;;;;6.35;4.15;;;;;;;;;;6057733;23;20027;-55
2023/05/23 07:19:27;;;;;;;6.75;4.40;;;;;;;;;;6058220;23;20051;-56
2023/05/23 07:21:55;;;;;;;6.30;4.43;;;;;;;;;;6059297;23;20023;-56
2023/05/23 07:24:28;;;;;;;9.77;4.10;;;;;;;;;;6056595;23;20030;-53
2023/05/23 07:26:56;;;;;;;6.28;4.22;;;;;;;;;;6058469;23;20439;-55
2023/05/23 07:29:23;;;;;;;7.38;4.07;;;;;;;;;;6057905;23;20550;-51
2023/05/23 07:31:57;;;;;;;7.60;4.35;;;;;;;;;;6055970;23;20022;-51
2023/05/23 07:34:25;;;;;;;6.70;4.82;;;;;;;;;;6057616;23;20547;-61
2023/05/23 07:37:00;;;;;;;6.30;4.68;;;;;;;;;;6057666;23;20491;-61
2023/05/23 07:39:27;;;;;;;;;;;;;;;;;;6058953;23;20022;-61
2023/05/23 07:41:54;;;;;;;13.05;4.55;;;;;;;;;;6057716;23;19922;-61
2023/05/23 07:44:28;;;;;;;8.50;4.63;;;;;;;;;;6057710;23;20515;-61
2023/05/23 07:46:55;;;;;;;10.02;4.63;;;;;;;;;;6058275;23;20086;-61
2023/05/23 07:49:23;;;;;;;6.97;3.80;;;;;;;;;;6081333;23;20026;-56
2023/05/23 07:51:57;;;;;;;6.68;3.70;;;;;;;;;;6086413;23;20564;-55
2023/05/23 07:54:24;;;;;;;10.48;4.18;;;;;;;;;;6086234;23;20090;-56
2023/05/23 07:56:53;;;;;;;6.88;3.95;;;;;;;;;;6087140;23;20505;-56
2023/05/23 07:59:26;;;;;;;7.03;3.53;;;;;;;;;;6085536;23;20093;-52
2023/05/23 08:01:53;;;;;;;7.70;3.90;;;;;;;;;;6087064;23;20023;-58
2023/05/23 08:04:31;;;;;;;9.00;3.72;;;;;;;;;;6086749;23;20026;-60
2023/05/23 08:06:59;;;;;;;7.03;4.05;;;;;;;;;;6086974;23;20023;-59
2023/05/23 08:09:32;;;;;;;7.50;4.35;;;;;;;;;;6085934;23;20490;-59
2023/05/23 08:12:06;;;;;;;6.30;4.15;;;;;;;;;;6086884;23;20022;-60
2023/05/23 08:14:33;;;;;;;;;;;;;;;;;;6085596;23;20557;-59
2023/05/23 08:17:17;;;;;;;5.82;3.70;;;;;;;;;;6086411;23;19921;-59
2023/05/23 08:19:44;;;;;;;5.70;4.35;;;;;;;;;;6087245;23;20061;-57
2023/05/23 08:22:18;;;;;;;13.65;4.15;;;;;;;;;;6086663;23;20490;-57
2023/05/23 08:24:45;;;;;;;9.45;4.10;;;;;;;;;;6086232;23;20030;-57
2023/05/23 08:27:13;;;;;;;8.70;4.20;;;;;;;;;;6086062;23;20089;-57
2023/05/23 08:29:46;;;;;;;5.82;4.10;;;;;;;;;;6086938;23;20030;-49
2023/05/23 08:32:14;;;;;;;6.50;3.70;;;;;;;;;;6086029;23;20486;-66
2023/05/23 08:34:48;;;;;;;12.68;3.90;;;;;;;;;;6087032;23;20061;-65
2023/05/23 08:37:15;;;;;;;;;;;;;;;;;;6086917;23;20026;-65
2023/05/23 08:39:42;;;;;;;11.70;4.25;;;;;;;;;;6084547;23;19969;-66
2023/05/23 08:42:16;;;;;;;7.72;3.50;;;;;;;;;;6084769;23;20503;-65
2023/05/23 08:44:43;;;;;;;16.40;4.35;;;;;;;;;;6086221;23;20022;-65
2023/05/23 08:47:18;;;;;;;8.60;4.00;;;;;;;;;;6085826;23;20034;-58
2023/05/23 08:49:55;;;;;;;7.15;3.67;;;;;;;;;;6060194;23;20035;-58
2023/05/23 08:52:29;;;;;;;8.50;4.47;;;;;;;;;;6057596;23;20559;-57
2023/05/23 08:54:57;;;;;;;6.88;4.07;;;;;;;;;;6056752;23;20019;-58
2023/05/23 08:57:25;;;;;;;7.50;3.80;;;;;;;;;;6056652;23;20491;-60
2023/05/23 09:00:00;;;;;;;12.75;4.80;;;;;;;;;;6056493;23;20087;-60
2023/05/23 09:02:27;;;;;;;7.72;3.83;;;;;;;;;;6056876;23;20086;-60
2023/05/23 09:05:01;;;;;;;13.43;4.38;;;;;;;;;;6057404;23;20026;-60
2023/05/23 09:07:29;;;;;;;8.40;3.95;;;;;;;;;;6058717;23;20034;-60
2023/05/23 09:09:56;;;;;;;7.07;3.97;;;;;;;;;;6056590;23;20035;-60
2023/05/23 09:12:29;;;;;;;9.90;4.43;;;;;;;;;;6056335;23;20895;-60
2023/05/23 09:14:57;;;;;;;10.10;4.28;;;;;;;;;;6057666;23;20030;-52
2023/05/23 09:17:32;;;;;;;5.78;4.07;;;;;;;;;;6033721;23;20451;-52
2023/05/23 09:19:59;;;;;;;8.98;4.55;;;;;;;;;;6057091;23;20490;-51
2023/05/23 09:22:26;;;;;;;;;;;;;;;;;;6057444;23;20034;-51
2023/05/23 09:25:00;;;;;;;8.38;4.47;;;;;;;;;;6056440;23;19929;-56
2023/05/23 09:27:27;;;;;;;11.48;4.35;;;;;;;;;;6058572;23;20019;-58
2023/05/23 09:30:08;;;;;;;8.90;3.70;;;;;;;;;;6056435;23;20026;-55
2023/05/23 09:32:36;;;;;;;8.88;4.43;;;;;;;;;;6056348;23;20059;-52
2023/05/23 09:35:12;;;;;;;8.65;4.43;;;;;;;;;;6057632;23;20033;-53
2023/05/23 09:37:47;;;;;;;11.00;4.63;;;;;;;;;;6058045;23;20495;-57
2023/05/23 09:40:21;;;;;;;9.55;4.32;;;;;;;;;;6057199;23;20463;-55
2023/05/23 09:42:50;;;;;;;7.13;4.55;;;;;;;;;;6057697;23;20023;-52
2023/05/23 09:45:18;;;;;;;8.30;4.40;;;;;;;;;;6057728;23;20087;-56
2023/05/23 09:47:58;;;;;;;10.20;4.38;;;;;;;;;;6059707;23;20833;-53
2023/05/23 09:50:32;;;;;;;7.45;4.22;;;;;;;;;;6086871;23;20027;-53
2023/05/23 09:53:07;;;;;;;8.15;4.30;;;;;;;;;;6085843;23;20525;-57
2023/05/23 09:55:34;;;;;;;9.88;4.35;;;;;;;;;;6086625;23;20022;-57
2023/05/23 09:58:08;;;;;;;6.88;3.70;;;;;;;;;;6086517;23;20018;-58
2023/05/23 10:00:37;;;;;;;5.40;3.90;;;;;;;;;;6085174;23;20494;-56
2023/05/23 10:03:07;;;;;;;11.35;4.50;;;;;;;;;;6086097;23;20403;-55
2023/05/23 10:05:51;;;;;;;7.25;4.85;;;;;;;;;;6085757;23;20431;-59
2023/05/23 10:08:28;;;;;;;7.95;4.00;;;;;;;;;;6087344;23;20032;-56
2023/05/23 10:11:17;;;;;;;12.88;4.32;;;;;;;;;;6088169;23;20061;-56
2023/05/23 10:13:45;;;;;;;10.00;3.35;;;;;;;;;;6088276;23;20044;-53
2023/05/23 10:16:26;;;;;;;7.43;3.88;;;;;;;;;;6087411;23;20027;-48
2023/05/23 10:18:57;;;;;;;6.45;3.92;;;;;;;;;;6087389;23;20030;-51
2023/05/23 10:21:38;;;;;;;7.90;3.40;;;;;;;;;;6087083;23;20109;-51
2023/05/23 10:24:06;;;;;;;7.28;3.50;;;;;;;;;;6086675;23;20027;-55
2023/05/23 10:26:41;;;;;;;6.32;3.50;;;;;;;;;;6087103;23;20117;-52
2023/05/23 10:29:08;;;;;;;9.07;4.28;;;;;;;;;;6087729;23;20026;-52
2023/05/23 10:31:35;;;;;;;7.00;3.28;;;;;;;;;;6088291;23;20030;-54
2023/05/23 10:34:15;;;;;;;9.50;3.80;;;;;;;;;;6087108;23;20026;-48
2023/05/23 10:36:53;;;;;;;9.18;3.53;;;;;;;;;;6087776;23;20404;-50
2023/05/23 10:39:33;;;;;;;9.30;3.60;;;;;;;;;;6086648;23;20062;-48
2023/05/23 10:42:02;;;;;;;12.15;3.58;;;;;;;;;;6087281;23;20066;-52
2023/05/23 10:44:36;;;;;;;11.65;3.33;;;;;;;;;;6088626;23;20018;-53
2023/05/23 10:47:11;;;;;;;9.75;3.53;;;;;;;;;;6088069;23;20798;-51
2023/05/23 10:49:45;;;;;;;10.40;3.60;;;;;;;;;;6085070;23;20081;-49
2023/05/23 10:52:20;;;;;;;9.35;3.90;;;;;;;;;;6087782;23;20026;-48
2023/05/23 10:54:50;;;;;;;5.82;3.72;;;;;;;;;;6087176;23;20051;-58
2023/05/23 10:57:26;;;;;;;6.88;3.33;;;;;;;;;;6086296;23;20026;-58
2023/05/23 10:59:54;;;;;;;7.53;3.83;;;;;;;;;;6085521;23;20534;-58
2023/05/23 11:02:21;;;;;;;;;;;;;;;;;;6087421;23;20031;-58
2023/05/23 11:05:22;;;;;;;8.02;3.50;;;;;;;;;;6086258;23;20291;-58
2023/05/23 11:08:06;;;;;;;7.10;3.60;;;;;;;;;;6084065;23;20034;-58
2023/05/23 11:11:00;;;;;;;31.63;3.78;;;;;;;;;;6087809;23;20030;-52
2023/05/23 11:13:47;;;;;;;7.65;3.53;;;;;;;;;;6087618;23;20367;-51
2023/05/23 11:16:25;;;;;;;5.65;3.22;;;;;;;;;;6077080;23;20434;-55
2023/05/23 11:18:57;;;;;;;10.88;3.90;;;;;;;;;;6086008;23;20074;-53
2023/05/23 11:21:31;;;;;;;5.43;3.63;;;;;;;;;;6087324;23;20022;-58
2023/05/23 11:23:59;;;;;;;9.18;3.75;;;;;;;;;;6086415;23;20474;-53
2023/05/23 11:26:30;;;;;;;5.60;3.60;;;;;;;;;;6088139;23;20027;-51
2023/05/23 11:29:08;;;;;;;6.85;3.67;;;;;;;;;;6086300;23;20026;-53
2023/05/23 11:31:39;;;;;;;7.90;3.50;;;;;;;;;;6087223;23;20105;-51
2023/05/23 11:34:13;;;;;;;8.77;3.08;;;;;;;;;;6085809;23;20482;-52
2023/05/23 11:36:40;;;;;;;7.47;3.75;;;;;;;;;;6087399;23;20077;-53
2023/05/23 11:39:07;;;;;;;8.18;3.95;;;;;;;;;;6087690;23;20026;-55
2023/05/23 11:41:42;;;;;;;7.32;4.18;;;;;;;;;;6087147;23;20093;-56
2023/05/23 11:44:13;;;;;;;7.35;3.63;;;;;;;;;;6085944;23;20371;-53
2023/05/23 11:46:59;;;;;;;7.93;4.07;;;;;;;;;;6087274;23;20553;-55
2023/05/23 11:49:36;;;;;;;7.85;4.03;;;;;;;;;;6069239;23;20048;-52
2023/05/23 11:52:10;;;;;;;7.65;4.00;;;;;;;;;;6056911;23;20439;-55
2023/05/23 11:54:40;;;;;;;6.00;3.58;;;;;;;;;;6057782;23;20027;-56
2023/05/23 11:57:14;;;;;;;6.63;4.00;;;;;;;;;;6058113;23;20436;-55
2023/05/23 11:59:42;;;;;;;8.18;3.70;;;;;;;;;;6058804;23;20503;-54
2023/05/23 12:02:16;;;;;;;9.05;4.10;;;;;;;;;;6057418;23;20030;-56
2023/05/23 12:04:43;;;;;;;5.95;3.97;;;;;;;;;;6058195;23;20029;-54
2023/05/23 12:07:10;;;;;;;6.63;3.70;;;;;;;;;;6058965;23;20023;-56
2023/05/23 12:09:44;;;;;;;8.32;4.25;;;;;;;;;;6057536;23;20413;-55
2023/05/23 12:12:27;;;;;;;8.45;3.88;;;;;;;;;;6056997;23;20133;-56
2023/05/23 12:15:09;;;;;;;7.13;3.78;;;;;;;;;;6057942;23;20090;-57
2023/05/23 12:17:43;;;;;;;9.90;3.90;;;;;;;;;;6058302;23;20387;-58
2023/05/23 12:20:20;;;;;;;6.25;3.80;;;;;;;;;;6057433;23;20046;-53
2023/05/23 12:22:47;;;;;;;9.15;4.20;;;;;;;;;;6058015;23;20027;-53
2023/05/23 12:25:14;;;;;;;8.05;4.22;;;;;;;;;;6056602;23;20046;-55
2023/05/23 12:27:48;;;;;;;8.82;4.43;;;;;;;;;;6056635;23;20364;-53
2023/05/23 12:30:15;;;;;;;;;;;;;;;;;;6057641;23;20031;-53
2023/05/23 12:32:48;;;;;;;8.07;4.32;;;;;;;;;;6055766;23;19981;-56
2023/05/23 12:35:16;;;;;;;12.02;4.22;;;;;;;;;;6057845;23;20490;-56
2023/05/23 12:37:47;;;;;;;10.40;4.60;;;;;;;;;;6057858;23;20100;-55
2023/05/23 12:40:20;;;;;;;6.10;4.20;;;;;;;;;;6057283;23;20572;-52
2023/05/23 12:42:55;;;;;;;10.05;4.75;;;;;;;;;;6057277;23;20076;-55
2023/05/23 12:45:32;;;;;;;11.50;4.97;;;;;;;;;;6057069;23;20387;-55
2023/05/23 12:48:06;;;;;;;7.68;4.53;;;;;;;;;;6056677;23;20081;-69
2023/05/23 12:50:47;;;;;;;7.03;4.40;;;;;;;;;;6058121;23;20030;-69
2023/05/23 12:53:14;;;;;;;9.50;4.45;;;;;;;;;;6056875;23;20026;-69
2023/05/23 12:55:51;;;;;;;11.65;4.07;;;;;;;;;;6058008;23;20094;-69
2023/05/23 12:58:25;;;;;;;7.70;4.18;;;;;;;;;;6057888;23;20031;-69
2023/05/23 13:00:56;;;;;;;6.93;4.28;;;;;;;;;;6056812;23;20023;-68
2023/05/23 13:03:24;;;;;;;9.63;4.07;;;;;;;;;;6057496;23;20098;-55
2023/05/23 13:05:58;;;;;;;10.85;4.35;;;;;;;;;;6058075;23;20034;-57
2023/05/23 13:08:28;;;;;;;12.07;4.78;;;;;;;;;;6056777;23;20087;-56
2023/05/23 13:10:56;;;;;;;8.70;4.60;;;;;;;;;;6056837;23;20034;-56
2023/05/23 13:13:31;;;;;;;7.90;4.68;;;;;;;;;;6057716;23;20557;-57
2023/05/23 13:15:58;;;;;;;13.10;4.68;;;;;;;;;;6056332;23;20467;-58
2023/05/23 13:18:32;;;;;;;10.63;4.55;;;;;;;;;;6056677;23;20038;-58
2023/05/23 13:21:00;;;;;;;9.10;4.40;;;;;;;;;;6058879;23;20098;-59
2023/05/23 13:23:27;;;;;;;6.38;4.47;;;;;;;;;;6056503;23;20031;-59
2023/05/23 13:26:00;;;;;;;13.02;5.10;;;;;;;;;;6056502;23;20495;-59
2023/05/23 13:28:28;;;;;;;8.07;4.60;;;;;;;;;;6057229;23;20026;-59
2023/05/23 13:31:02;;;;;;;10.35;4.60;;;;;;;;;;6054750;23;20073;-56
2023/05/23 13:33:29;;;;;;;;;;;;;;;;;;6056089;23;20191;-55
2023/05/23 13:35:57;;;;;;;8.02;5.22;;;;;;;;;;6058291;23;19922;-57
2023/05/23 13:38:31;;;;;;;8.77;5.10;;;;;;;;;;6057670;23;20083;-57
2023/05/23 13:40:58;;;;;;;8.27;5.40;;;;;;;;;;6057481;23;20289;-66
2023/05/23 13:43:25;;;;;;;10.25;4.57;;;;;;;;;;6057960;23;20026;-66
2023/05/23 13:46:00;;;;;;;8.50;5.28;;;;;;;;;;6057416;23;20680;-72
2023/05/23 13:48:28;;;;;;;12.10;5.57;;;;;;;;;;6063256;23;20027;-71
2023/05/23 13:51:08;;;;;;;15.88;6.03;;;;;;;;;;6087994;23;20541;-71
2023/05/23 13:53:35;;;;;;;11.15;5.65;;;;;;;;;;6087049;23;20105;-71
2023/05/23 13:56:09;;;;;;;10.02;6.13;;;;;;;;;;6086552;23;20026;-71
2023/05/23 13:58:37;;;;;;;9.65;6.05;;;;;;;;;;6088831;23;20090;-72
2023/05/23 14:01:04;;;;;;;8.73;5.82;;;;;;;;;;6085747;23;20583;-59
2023/05/23 14:03:37;;;;;;;9.45;5.88;;;;;;;;;;6073369;23;20936;-57
2023/05/23 14:06:11;;;;;;;9.75;6.07;;;;;;;;;;6087268;23;20034;-58
2023/05/23 14:08:39;;;;;;;14.60;6.25;;;;;;;;;;6087103;23;20026;-58
2023/05/23 14:11:06;;;;;;;9.38;6.32;;;;;;;;;;6087512;23;20486;-58
2023/05/23 14:13:39;;;;;;;8.10;5.57;;;;;;;;;;6088170;23;20026;-54
2023/05/23 14:16:07;;;;;;;7.43;4.95;;;;;;;;;;6085859;23;20629;-54
2023/05/23 14:18:41;;;;;;;9.88;5.28;;;;;;;;;;6087416;23;20034;-50
2023/05/23 14:21:08;;;;;;;6.38;4.82;;;;;;;;;;6087709;23;20054;-52
2023/05/23 14:23:35;;;;;;;11.55;4.80;;;;;;;;;;6085951;23;20125;-49
2023/05/23 14:26:09;;;;;;;7.55;5.15;;;;;;;;;;6087799;23;20087;-47
2023/05/23 14:28:37;;;;;;;8.38;5.22;;;;;;;;;;6088197;23;20085;-58
2023/05/23 14:31:10;;;;;;;12.90;5.50;;;;;;;;;;6085990;23;20479;-58
2023/05/23 14:33:38;;;;;;;7.68;5.97;;;;;;;;;;6086647;23;20082;-58
2023/05/23 14:36:05;;;;;;;7.18;4.80;;;;;;;;;;6087795;23;20078;-58
2023/05/23 14:38:40;;;;;;;11.68;5.07;;;;;;;;;;6086485;23;20026;-58
2023/05/23 14:41:07;;;;;;;9.40;5.80;;;;;;;;;;6086643;23;20501;-60
2023/05/23 14:43:41;;;;;;;7.45;4.78;;;;;;;;;;6088259;23;20410;-58
2023/05/23 14:46:09;;;;;;;11.18;5.05;;;;;;;;;;6085956;23;20109;-57
2023/05/23 14:48:36;;;;;;;12.25;5.28;;;;;;;;;;6082980;23;20026;-68
2023/05/23 14:51:10;;;;;;;6.80;5.40;;;;;;;;;;6058446;23;20033;-58
2023/05/23 14:53:46;;;;;;;14.65;5.72;;;;;;;;;;6058877;23;20026;-55
2023/05/23 14:56:22;;;;;;;10.27;5.20;;;;;;;;;;6057437;23;20379;-58
2023/05/23 14:58:49;;;;;;;9.27;5.38;;;;;;;;;;6058021;23;20038;-57
2023/05/23 15:01:17;;;;;;;8.55;5.75;;;;;;;;;;6056631;23;20058;-57
2023/05/23 15:03:51;;;;;;;7.63;5.30;;;;;;;;;;6057331;23;20110;-60
2023/05/23 15:06:18;;;;;;;10.80;5.75;;;;;;;;;;6058672;23;20549;-70